createdAt,value
2019-02-28T00:00:44.400Z,66.97
2019-02-28T00:01:46.468Z,66.04
2019-02-28T00:02:44.408Z,67.17
2019-02-28T00:04:43.355Z,66.86
2019-02-28T00:05:44.346Z,67.27
2019-02-28T00:06:45.147Z,66.66
2019-02-28T00:07:44.331Z,66.55
2019-02-28T00:08:53.693Z,66.35
2019-02-28T00:09:44.308Z,66.45
2019-02-28T00:10:44.296Z,66.45
2019-02-28T00:11:44.280Z,66.35
2019-02-28T00:12:45.284Z,65.86
2019-02-28T00:13:44.249Z,66.45
2019-02-28T00:14:45.596Z,65.94
2019-02-28T00:15:44.264Z,66.04
2019-02-28T00:16:44.229Z,66.45
2019-02-28T00:17:44.215Z,66.35
2019-02-28T00:18:44.206Z,66.04
2019-02-28T00:19:44.194Z,66.04
2019-02-28T00:20:46.980Z,66.14
2019-02-28T00:21:44.196Z,66.04
2019-02-28T00:22:49.184Z,66.17
2019-02-28T00:23:44.176Z,66.14
2019-02-28T00:24:44.135Z,66.17
2019-02-28T00:25:44.126Z,66.07
2019-02-28T00:26:47.567Z,66.38
2019-02-28T00:27:44.112Z,65.97
2019-02-28T00:28:44.090Z,66.07
2019-02-28T00:29:46.017Z,65.86
2019-02-28T00:31:49.433Z,67.00
2019-02-28T00:32:44.052Z,66.69
2019-02-28T00:33:44.042Z,66.48
2019-02-28T00:34:44.034Z,66.69
2019-02-28T00:35:44.683Z,66.38
2019-02-28T00:36:44.013Z,66.69
2019-02-28T00:37:43.992Z,66.48
2019-02-28T00:38:44.024Z,66.61
2019-02-28T00:39:43.972Z,66.20
2019-02-28T00:40:43.964Z,67.34
2019-02-28T00:41:46.484Z,67.24
2019-02-28T00:42:43.940Z,66.82
2019-02-28T00:43:43.936Z,66.93
2019-02-28T00:44:43.942Z,67.54
2019-02-28T00:45:43.912Z,67.58
2019-02-28T00:46:45.232Z,67.96
2019-02-28T00:47:43.878Z,67.96
2019-02-28T00:48:43.923Z,67.99
2019-02-28T00:49:43.869Z,68.51
2019-02-28T00:50:43.860Z,68.30
2019-02-28T00:51:43.844Z,68.71
2019-02-28T00:52:43.827Z,68.40
2019-02-28T00:53:43.822Z,68.30
2019-02-28T00:54:44.516Z,68.51
2019-02-28T00:55:45.984Z,68.30
2019-02-28T00:56:43.784Z,68.09
2019-02-28T00:57:43.774Z,67.99
2019-02-28T00:58:43.770Z,68.09
2019-02-28T00:59:43.750Z,68.40
2019-02-28T01:00:43.776Z,68.43
2019-02-28T01:01:46.049Z,68.74
2019-02-28T01:02:43.724Z,69.02
2019-02-28T01:03:43.729Z,68.85
2019-02-28T01:04:43.713Z,68.82
2019-02-28T01:05:43.688Z,68.74
2019-02-28T01:06:43.684Z,68.40
2019-02-28T01:08:42.690Z,67.88
2019-02-28T01:09:43.656Z,67.61
2019-02-28T01:10:43.670Z,67.37
2019-02-28T01:11:44.929Z,67.40
2019-02-28T01:12:43.619Z,66.64
2019-02-28T01:13:43.602Z,67.06
2019-02-28T01:14:43.594Z,66.96
2019-02-28T01:15:46.485Z,66.57
2019-02-28T01:16:43.594Z,66.54
2019-02-28T01:17:43.553Z,67.30
2019-02-28T01:18:43.542Z,66.57
2019-02-28T01:19:43.540Z,66.96
2019-02-28T01:20:43.518Z,66.47
2019-02-28T01:21:43.509Z,66.16
2019-02-28T01:22:43.530Z,66.47
2019-02-28T01:23:43.499Z,66.57
2019-02-28T01:24:43.485Z,66.88
2019-02-28T01:25:43.467Z,66.67
2019-02-28T01:26:46.720Z,66.26
2019-02-28T01:27:43.445Z,66.78
2019-02-28T01:28:45.957Z,67.19
2019-02-28T01:29:43.427Z,67.71
2019-02-28T01:30:43.411Z,67.71
2019-02-28T01:31:43.495Z,67.91
2019-02-28T01:32:43.393Z,68.12
2019-02-28T01:34:42.371Z,69.06
2019-02-28T01:35:43.368Z,68.54
2019-02-28T01:36:45.944Z,68.85
2019-02-28T01:37:43.341Z,68.74
2019-02-28T01:38:43.328Z,68.33
2019-02-28T01:39:43.317Z,68.54
2019-02-28T01:40:43.308Z,67.91
2019-02-28T01:41:45.182Z,68.85
2019-02-28T01:42:43.284Z,68.23
2019-02-28T01:43:43.272Z,68.26
2019-02-28T01:44:43.268Z,68.67
2019-02-28T01:45:44.301Z,68.77
2019-02-28T01:46:43.367Z,69.60
2019-02-28T01:47:43.238Z,69.09
2019-02-28T01:48:43.226Z,68.88
2019-02-28T01:49:43.209Z,68.77
2019-02-28T01:51:42.181Z,69.29
2019-02-28T01:52:45.974Z,69.09
2019-02-28T01:53:43.164Z,68.88
2019-02-28T01:54:43.159Z,69.60
2019-02-28T01:55:43.146Z,68.91
2019-02-28T01:56:43.131Z,68.91
2019-02-28T01:57:44.346Z,68.98
2019-02-28T01:58:43.157Z,68.88
2019-02-28T01:59:43.115Z,68.70
2019-02-28T02:00:43.095Z,68.98
2019-02-28T02:01:43.087Z,68.67
2019-02-28T02:02:43.077Z,68.46
2019-02-28T02:03:43.055Z,68.88
2019-02-28T02:04:45.540Z,68.98
2019-02-28T02:05:43.035Z,69.40
2019-02-28T02:06:43.025Z,69.53
2019-02-28T02:07:43.023Z,68.57
2019-02-28T02:08:43.006Z,68.26
2019-02-28T02:09:46.105Z,68.36
2019-02-28T02:10:43.013Z,68.08
2019-02-28T02:11:43.001Z,68.05
2019-02-28T02:12:42.962Z,68.77
2019-02-28T02:13:42.945Z,68.77
2019-02-28T02:14:45.653Z,68.36
2019-02-28T02:15:45.441Z,68.15
2019-02-28T02:16:42.915Z,68.67
2019-02-28T02:17:42.933Z,68.88
2019-02-28T02:18:43.327Z,68.40
2019-02-28T02:19:42.885Z,68.05
2019-02-28T02:20:42.876Z,67.88
2019-02-28T02:21:42.870Z,67.12
2019-02-28T02:22:44.592Z,67.43
2019-02-28T02:23:42.876Z,66.71
2019-02-28T02:24:42.845Z,66.71
2019-02-28T02:25:42.819Z,66.71
2019-02-28T02:26:45.227Z,65.88
2019-02-28T02:27:42.811Z,65.36
2019-02-28T02:29:41.782Z,64.74
2019-02-28T02:30:42.766Z,64.53
2019-02-28T02:31:43.695Z,64.53
2019-02-28T02:32:42.783Z,64.09
2019-02-28T02:33:42.734Z,65.44
2019-02-28T02:34:42.753Z,64.09
2019-02-28T02:35:43.642Z,66.67
2019-02-28T02:36:42.709Z,67.09
2019-02-28T02:37:42.693Z,67.43
2019-02-28T02:38:42.688Z,66.81
2019-02-28T02:39:42.708Z,67.33
2019-02-28T02:41:42.433Z,66.71
2019-02-28T02:42:47.230Z,67.25
2019-02-28T02:43:42.627Z,67.22
2019-02-28T02:44:42.614Z,66.71
2019-02-28T02:45:43.781Z,67.25
2019-02-28T02:46:42.601Z,66.84
2019-02-28T02:47:43.433Z,65.91
2019-02-28T02:48:43.406Z,65.81
2019-02-28T02:49:42.590Z,66.22
2019-02-28T02:50:42.552Z,66.74
2019-02-28T02:51:49.170Z,66.53
2019-02-28T02:52:42.530Z,66.12
2019-02-28T02:53:43.371Z,65.70
2019-02-28T02:54:42.534Z,65.08
2019-02-28T02:55:42.493Z,64.36
2019-02-28T02:56:42.512Z,64.56
2019-02-28T02:57:42.488Z,65.29
2019-02-28T02:58:42.466Z,64.36
2019-02-28T02:59:42.472Z,65.50
2019-02-28T03:00:49.630Z,66.74
2019-02-28T03:01:42.429Z,66.84
2019-02-28T03:02:42.433Z,65.50
2019-02-28T03:03:44.293Z,66.53
2019-02-28T03:04:42.410Z,67.25
2019-02-28T03:05:42.392Z,67.05
2019-02-28T03:06:45.936Z,67.05
2019-02-28T03:07:42.371Z,66.46
2019-02-28T03:08:42.362Z,66.63
2019-02-28T03:09:43.782Z,65.50
2019-02-28T03:10:42.338Z,65.29
2019-02-28T03:11:42.328Z,64.67
2019-02-28T03:12:42.335Z,64.56
2019-02-28T03:13:44.036Z,64.77
2019-02-28T03:14:42.339Z,64.46
2019-02-28T03:15:42.286Z,64.36
2019-02-28T03:16:42.271Z,65.26
2019-02-28T03:17:46.688Z,65.08
2019-02-28T03:18:42.254Z,64.53
2019-02-28T03:19:42.240Z,64.56
2019-02-28T03:20:42.597Z,65.05
2019-02-28T03:21:42.224Z,64.56
2019-02-28T03:22:42.212Z,63.92
2019-02-28T03:23:42.197Z,64.56
2019-02-28T03:24:42.197Z,64.53
2019-02-28T03:25:42.170Z,64.87
2019-02-28T03:26:43.360Z,64.43
2019-02-28T03:27:42.147Z,64.74
2019-02-28T03:28:42.141Z,64.53
2019-02-28T03:29:43.934Z,65.36
2019-02-28T03:30:42.121Z,63.81
2019-02-28T03:31:42.121Z,62.81
2019-02-28T03:32:42.859Z,63.71
2019-02-28T03:33:42.088Z,64.46
2019-02-28T03:34:54.979Z,64.43
2019-02-28T03:35:44.150Z,63.71
2019-02-28T03:36:42.922Z,64.36
2019-02-28T03:37:42.083Z,64.23
2019-02-28T03:38:48.471Z,64.64
2019-02-28T03:39:42.023Z,64.53
2019-02-28T03:40:42.016Z,64.02
2019-02-28T03:41:41.999Z,64.12
2019-02-28T03:42:42.055Z,62.18
2019-02-28T03:43:43.835Z,63.09
2019-02-28T03:44:41.974Z,63.81
2019-02-28T03:45:41.957Z,62.98
2019-02-28T03:46:46.429Z,62.67
2019-02-28T03:47:41.945Z,63.19
2019-02-28T03:48:41.928Z,62.98
2019-02-28T03:49:48.675Z,61.12
2019-02-28T03:50:44.410Z,60.71
2019-02-28T03:51:41.897Z,61.02
2019-02-28T03:52:44.300Z,61.33
2019-02-28T03:53:41.877Z,61.82
2019-02-28T03:54:41.858Z,62.65
2019-02-28T03:55:41.852Z,61.82
2019-02-28T03:56:41.840Z,61.92
2019-02-28T03:57:41.836Z,62.85
2019-02-28T03:58:43.178Z,61.82
2019-02-28T03:59:41.823Z,60.58
2019-02-28T04:00:42.414Z,61.10
2019-02-28T04:01:45.641Z,61.92
2019-02-28T04:02:41.783Z,62.23
2019-02-28T04:03:41.760Z,62.23
2019-02-28T04:04:48.819Z,60.58
2019-02-28T04:05:41.751Z,60.44
2019-02-28T04:06:41.757Z,61.07
2019-02-28T04:07:41.727Z,61.82
2019-02-28T04:08:41.720Z,61.48
2019-02-28T04:09:44.325Z,62.10
2019-02-28T04:10:42.404Z,60.86
2019-02-28T04:11:41.676Z,61.99
2019-02-28T04:12:45.632Z,61.89
2019-02-28T04:13:41.679Z,61.58
2019-02-28T04:14:42.411Z,60.58
2019-02-28T04:15:49.561Z,61.38
2019-02-28T04:16:41.641Z,60.44
2019-02-28T04:17:42.454Z,60.34
2019-02-28T04:18:45.904Z,60.75
2019-02-28T04:19:41.588Z,60.14
2019-02-28T04:20:41.588Z,60.47
2019-02-28T04:21:46.216Z,60.34
2019-02-28T04:22:41.573Z,60.37
2019-02-28T04:23:41.570Z,60.34
2019-02-28T04:24:46.330Z,59.93
2019-02-28T04:25:41.526Z,59.64
2019-02-28T04:26:41.518Z,59.31
2019-02-28T04:27:42.040Z,59.41
2019-02-28T04:28:41.507Z,59.31
2019-02-28T04:29:41.482Z,59.83
2019-02-28T04:30:43.768Z,59.52
2019-02-28T04:31:41.469Z,59.31
2019-02-28T04:32:41.481Z,59.20
2019-02-28T04:33:41.446Z,58.69
2019-02-28T04:34:41.437Z,58.48
2019-02-28T04:35:41.423Z,58.59
2019-02-28T04:36:41.416Z,58.69
2019-02-28T04:37:46.737Z,58.79
2019-02-28T04:38:41.392Z,58.89
2019-02-28T04:39:41.372Z,58.17
2019-02-28T04:40:41.383Z,58.48
2019-02-28T04:41:41.367Z,58.48
2019-02-28T04:42:41.347Z,58.69
2019-02-28T04:43:41.562Z,58.79
2019-02-28T04:44:41.318Z,58.89
2019-02-28T04:45:41.316Z,59.00
2019-02-28T04:46:41.307Z,58.48
2019-02-28T04:47:41.681Z,59.62
2019-02-28T04:48:41.276Z,59.00
2019-02-28T04:49:41.299Z,59.20
2019-02-28T04:50:41.255Z,59.72
2019-02-28T04:51:41.245Z,59.62
2019-02-28T04:52:46.758Z,58.59
2019-02-28T04:53:41.222Z,58.28
2019-02-28T04:54:41.216Z,58.59
2019-02-28T04:55:41.224Z,56.00
2019-02-28T04:56:42.291Z,56.31
2019-02-28T04:57:41.898Z,57.63
2019-02-28T04:58:41.172Z,57.32
2019-02-28T04:59:41.208Z,56.18
2019-02-28T05:00:41.151Z,57.94
2019-02-28T05:01:41.134Z,57.53
2019-02-28T05:02:41.136Z,58.15
2019-02-28T05:03:43.891Z,58.56
2019-02-28T05:04:41.892Z,58.66
2019-02-28T05:05:41.126Z,57.73
2019-02-28T05:06:41.086Z,56.90
2019-02-28T05:07:41.081Z,58.25
2019-02-28T05:08:41.074Z,57.94
2019-02-28T05:09:41.050Z,57.42
2019-02-28T05:10:41.047Z,57.73
2019-02-28T05:11:41.058Z,57.73
2019-02-28T05:12:41.276Z,57.63
2019-02-28T05:13:41.285Z,58.35
2019-02-28T05:14:41.000Z,57.53
2019-02-28T05:15:41.175Z,57.21
2019-02-28T05:17:39.968Z,57.63
2019-02-28T05:18:40.964Z,57.53
2019-02-28T05:19:40.946Z,55.98
2019-02-28T05:20:44.689Z,56.49
2019-02-28T05:21:40.922Z,56.18
2019-02-28T05:23:40.386Z,56.90
2019-02-28T05:24:42.678Z,56.29
2019-02-28T05:25:40.877Z,54.74
2019-02-28T05:26:40.863Z,56.08
2019-02-28T05:27:40.864Z,55.98
2019-02-28T05:28:41.383Z,57.11
2019-02-28T05:29:43.867Z,56.70
2019-02-28T05:30:41.532Z,56.81
2019-02-28T05:31:40.813Z,56.39
2019-02-28T05:32:40.802Z,56.90
2019-02-28T05:33:41.886Z,56.60
2019-02-28T05:34:40.804Z,56.18
2019-02-28T05:36:39.762Z,56.39
2019-02-28T05:37:46.677Z,56.81
2019-02-28T05:38:40.740Z,57.01
2019-02-28T05:39:40.753Z,55.87
2019-02-28T05:40:41.498Z,55.05
2019-02-28T05:41:40.706Z,53.60
2019-02-28T05:42:40.699Z,54.40
2019-02-28T05:43:41.382Z,54.61
2019-02-28T05:44:43.378Z,54.50
2019-02-28T05:45:40.696Z,54.82
2019-02-28T05:46:40.649Z,56.05
2019-02-28T05:47:46.336Z,54.19
2019-02-28T05:48:40.633Z,53.99
2019-02-28T05:49:41.083Z,53.27
2019-02-28T05:50:40.605Z,54.09
2019-02-28T05:51:40.619Z,54.50
2019-02-28T05:52:40.581Z,55.74
2019-02-28T05:53:42.444Z,56.16
2019-02-28T05:54:40.566Z,54.61
2019-02-28T05:55:40.552Z,53.89
2019-02-28T05:56:40.558Z,54.90
2019-02-28T05:57:43.498Z,54.92
2019-02-28T05:58:40.524Z,54.92
2019-02-28T05:59:40.518Z,55.02
2019-02-28T06:00:40.504Z,54.17
2019-02-28T06:01:43.586Z,54.79
2019-02-28T06:02:40.477Z,54.69
2019-02-28T06:03:40.498Z,54.79
2019-02-28T06:04:40.459Z,54.79
2019-02-28T06:05:43.388Z,53.86
2019-02-28T06:06:40.437Z,52.62
2019-02-28T06:07:40.437Z,54.79
2019-02-28T06:08:40.418Z,54.48
2019-02-28T06:09:40.426Z,54.90
2019-02-28T06:10:41.375Z,54.97
2019-02-28T06:11:40.382Z,52.93
2019-02-28T06:12:43.963Z,50.87
2019-02-28T06:14:39.346Z,48.99
2019-02-28T06:15:40.367Z,49.71
2019-02-28T06:16:40.361Z,49.07
2019-02-28T06:17:40.315Z,50.82
2019-02-28T06:18:40.869Z,50.82
2019-02-28T06:19:43.389Z,48.66
2019-02-28T06:20:40.277Z,47.73
2019-02-28T06:21:40.279Z,47.81
2019-02-28T06:22:40.297Z,48.12
2019-02-28T06:23:40.992Z,48.84
2019-02-28T06:24:40.234Z,47.71
2019-02-28T06:25:40.247Z,48.33
2019-02-28T06:26:40.209Z,50.08
2019-02-28T06:27:41.824Z,49.56
2019-02-28T06:28:40.192Z,50.05
2019-02-28T06:29:40.182Z,47.79
2019-02-28T06:30:41.479Z,47.69
2019-02-28T06:31:40.166Z,48.20
2019-02-28T06:32:40.148Z,46.76
2019-02-28T06:33:40.150Z,47.38
2019-02-28T06:34:42.208Z,47.69
2019-02-28T06:35:40.120Z,47.48
2019-02-28T06:37:39.195Z,46.22
2019-02-28T06:38:40.078Z,46.63
2019-02-28T06:40:39.404Z,45.50
2019-02-28T06:41:40.794Z,46.33
2019-02-28T06:42:40.043Z,45.91
2019-02-28T06:43:40.043Z,45.68
2019-02-28T06:44:40.018Z,45.79
2019-02-28T06:45:40.052Z,46.10
2019-02-28T06:46:40.832Z,46.20
2019-02-28T06:47:39.983Z,47.33
2019-02-28T06:48:39.992Z,47.44
2019-02-28T06:49:41.835Z,47.23
2019-02-28T06:50:39.946Z,48.05
2019-02-28T06:51:39.966Z,47.95
2019-02-28T06:52:39.928Z,48.26
2019-02-28T06:54:39.912Z,47.13
2019-02-28T06:55:39.934Z,47.74
2019-02-28T06:56:39.884Z,47.33
2019-02-28T06:57:39.898Z,48.05
2019-02-28T06:58:39.872Z,47.20
2019-02-28T06:59:39.911Z,47.23
2019-02-28T07:00:40.386Z,46.92
2019-02-28T07:01:40.396Z,46.72
2019-02-28T07:02:39.812Z,47.52
2019-02-28T07:03:39.920Z,47.23
2019-02-28T07:04:39.792Z,46.80
2019-02-28T07:05:39.816Z,46.10
2019-02-28T07:06:39.773Z,45.36
2019-02-28T07:07:39.770Z,46.08
2019-02-28T07:08:39.760Z,46.59
2019-02-28T07:09:40.381Z,47.41
2019-02-28T07:10:41.529Z,46.88
2019-02-28T07:11:40.350Z,45.87
2019-02-28T07:12:39.710Z,46.67
2019-02-28T07:13:40.225Z,47.29
2019-02-28T07:14:39.719Z,46.88
2019-02-28T07:15:39.682Z,47.08
2019-02-28T07:16:39.724Z,45.54
2019-02-28T07:17:42.713Z,45.54
2019-02-28T07:19:38.626Z,45.01
2019-02-28T07:20:42.348Z,45.31
2019-02-28T07:21:43.242Z,45.60
2019-02-28T07:22:40.150Z,45.40
2019-02-28T07:23:39.586Z,45.19
2019-02-28T07:24:39.629Z,44.78
2019-02-28T07:25:40.350Z,45.09
2019-02-28T07:26:39.554Z,45.19
2019-02-28T07:27:39.545Z,44.98
2019-02-28T07:28:40.366Z,47.24
2019-02-28T07:29:42.754Z,45.70
2019-02-28T07:30:39.552Z,44.78
2019-02-28T07:31:42.350Z,44.57
2019-02-28T07:32:39.490Z,45.70
2019-02-28T07:33:41.273Z,45.68
2019-02-28T07:34:39.467Z,45.37
2019-02-28T07:35:42.348Z,45.89
2019-02-28T07:36:41.518Z,45.99
2019-02-28T07:37:42.344Z,46.17
2019-02-28T07:38:39.442Z,46.79
2019-02-28T07:39:40.436Z,46.38
2019-02-28T07:40:39.398Z,46.07
2019-02-28T07:41:41.378Z,47.51
2019-02-28T07:42:39.380Z,46.87
2019-02-28T07:43:39.390Z,46.97
2019-02-28T07:44:39.355Z,47.79
2019-02-28T07:45:39.405Z,47.59
2019-02-28T07:46:42.406Z,47.49
2019-02-28T07:47:39.321Z,48.51
2019-02-28T07:48:39.381Z,48.31
2019-02-28T07:49:39.306Z,48.08
2019-02-28T07:50:39.319Z,48.08
2019-02-28T07:51:39.283Z,48.06
2019-02-28T07:52:39.278Z,48.16
2019-02-28T07:53:40.933Z,48.16
2019-02-28T07:54:39.271Z,47.64
2019-02-28T07:55:39.256Z,47.75
2019-02-28T07:56:43.130Z,47.44
2019-02-28T07:57:39.226Z,47.73
2019-02-28T07:58:39.203Z,47.63
2019-02-28T07:59:42.351Z,47.83
2019-02-28T08:00:39.190Z,47.42
2019-02-28T08:01:39.189Z,47.71
2019-02-28T08:02:39.995Z,47.19
2019-02-28T08:03:43.489Z,47.40
2019-02-28T08:04:39.158Z,47.71
2019-02-28T08:05:39.138Z,47.71
2019-02-28T08:06:41.839Z,47.58
2019-02-28T08:07:39.104Z,47.68
2019-02-28T08:08:39.096Z,47.48
2019-02-28T08:09:41.831Z,47.48
2019-02-28T08:10:39.108Z,47.48
2019-02-28T08:11:39.056Z,47.48
2019-02-28T08:12:39.060Z,47.58
2019-02-28T08:13:39.031Z,47.78
2019-02-28T08:14:39.078Z,47.15
2019-02-28T08:15:39.019Z,46.84
2019-02-28T08:16:39.006Z,47.38
2019-02-28T08:17:40.637Z,47.25
2019-02-28T08:18:38.984Z,47.35
2019-02-28T08:19:38.972Z,47.05
2019-02-28T08:20:39.838Z,47.35
2019-02-28T08:21:43.975Z,47.35
2019-02-28T08:22:38.946Z,47.35
2019-02-28T08:23:38.926Z,47.45
2019-02-28T08:24:38.910Z,47.23
2019-02-28T08:25:42.818Z,47.64
2019-02-28T08:26:39.383Z,47.03
2019-02-28T08:27:38.884Z,47.03
2019-02-28T08:28:38.874Z,47.41
2019-02-28T08:29:38.863Z,47.53
2019-02-28T08:30:38.856Z,47.44
2019-02-28T08:31:38.890Z,47.64
2019-02-28T08:32:42.392Z,47.64
2019-02-28T08:33:38.818Z,47.41
2019-02-28T08:34:38.813Z,47.41
2019-02-28T08:36:37.808Z,47.61
2019-02-28T08:37:38.770Z,47.61
2019-02-28T08:38:38.777Z,47.41
2019-02-28T08:39:41.160Z,47.52
2019-02-28T08:40:38.753Z,47.82
2019-02-28T08:41:38.783Z,47.72
2019-02-28T08:42:39.744Z,47.49
2019-02-28T08:43:38.705Z,47.49
2019-02-28T08:44:38.710Z,47.69
2019-02-28T08:45:38.697Z,47.29
2019-02-28T08:46:38.711Z,47.60
2019-02-28T08:47:41.329Z,47.29
2019-02-28T08:48:41.330Z,47.60
2019-02-28T08:49:44.552Z,47.39
2019-02-28T08:50:38.632Z,47.39
2019-02-28T08:51:38.634Z,47.67
2019-02-28T08:52:41.015Z,47.47
2019-02-28T08:53:38.602Z,47.16
2019-02-28T08:54:38.593Z,47.37
2019-02-28T08:55:39.616Z,47.37
2019-02-28T08:56:38.607Z,47.27
2019-02-28T08:57:38.554Z,46.96
2019-02-28T08:58:38.576Z,47.78
2019-02-28T08:59:38.529Z,47.37
2019-02-28T09:00:38.558Z,47.37
2019-02-28T09:01:41.256Z,47.16
2019-02-28T09:02:38.565Z,47.16
2019-02-28T09:03:40.544Z,47.37
2019-02-28T09:04:41.516Z,46.96
2019-02-28T09:05:38.477Z,47.14
2019-02-28T09:06:41.065Z,46.86
2019-02-28T09:07:41.348Z,47.16
2019-02-28T09:08:38.432Z,47.04
2019-02-28T09:09:41.325Z,47.45
2019-02-28T09:10:38.410Z,47.67
2019-02-28T09:11:39.328Z,47.57
2019-02-28T09:12:38.421Z,47.45
2019-02-28T09:13:39.967Z,46.83
2019-02-28T09:14:38.378Z,47.55
2019-02-28T09:15:38.382Z,47.34
2019-02-28T09:16:40.822Z,47.34
2019-02-28T09:17:38.341Z,47.34
2019-02-28T09:18:41.325Z,47.45
2019-02-28T09:19:38.316Z,47.34
2019-02-28T09:20:38.305Z,47.55
2019-02-28T09:21:38.293Z,47.45
2019-02-28T09:22:38.281Z,47.34
2019-02-28T09:23:38.517Z,47.55
2019-02-28T09:24:38.415Z,47.42
2019-02-28T09:25:38.244Z,47.63
2019-02-28T09:26:38.236Z,47.53
2019-02-28T09:27:38.988Z,47.42
2019-02-28T09:28:38.218Z,47.22
2019-02-28T09:30:37.196Z,46.71
2019-02-28T09:31:39.091Z,47.02
2019-02-28T09:32:40.818Z,47.22
2019-02-28T09:33:38.163Z,46.48
2019-02-28T09:34:38.154Z,46.38
2019-02-28T09:35:38.379Z,46.81
2019-02-28T09:36:38.123Z,46.59
2019-02-28T09:37:38.113Z,47.00
2019-02-28T09:38:42.315Z,45.87
2019-02-28T09:39:38.130Z,46.26
2019-02-28T09:40:41.314Z,46.38
2019-02-28T09:41:40.183Z,46.38
2019-02-28T09:42:38.069Z,46.38
2019-02-28T09:43:38.057Z,45.98
2019-02-28T09:44:38.030Z,46.59
2019-02-28T09:45:39.881Z,46.38
2019-02-28T09:46:38.017Z,45.87
2019-02-28T09:47:38.014Z,46.79
2019-02-28T09:48:38.073Z,46.48
2019-02-28T09:49:38.020Z,46.18
2019-02-28T09:50:37.977Z,46.38
2019-02-28T09:51:37.963Z,46.28
2019-02-28T09:52:41.414Z,46.18
2019-02-28T09:53:37.945Z,46.18
2019-02-28T09:54:37.970Z,46.26
2019-02-28T09:55:39.815Z,46.56
2019-02-28T09:56:41.154Z,46.26
2019-02-28T09:57:37.928Z,46.15
2019-02-28T09:58:37.903Z,46.47
2019-02-28T09:59:38.640Z,46.14
2019-02-28T10:00:38.812Z,46.24
2019-02-28T10:01:37.877Z,45.63
2019-02-28T10:02:40.453Z,45.54
2019-02-28T10:03:38.016Z,45.94
2019-02-28T10:04:37.863Z,46.36
2019-02-28T10:05:39.044Z,45.75
2019-02-28T10:06:37.808Z,45.65
2019-02-28T10:07:37.795Z,45.65
2019-02-28T10:08:40.312Z,45.54
2019-02-28T10:09:40.510Z,45.73
2019-02-28T10:10:37.800Z,45.34
2019-02-28T10:11:37.754Z,45.65
2019-02-28T10:12:42.042Z,46.26
2019-02-28T10:13:37.730Z,46.34
2019-02-28T10:14:40.308Z,46.44
2019-02-28T10:15:38.649Z,46.14
2019-02-28T10:16:37.737Z,46.24
2019-02-28T10:17:38.301Z,46.14
2019-02-28T10:18:40.306Z,46.34
2019-02-28T10:19:45.506Z,46.01
2019-02-28T10:20:37.657Z,46.32
2019-02-28T10:21:39.651Z,46.52
2019-02-28T10:22:37.655Z,46.01
2019-02-28T10:24:39.305Z,46.22
2019-02-28T10:25:43.274Z,46.11
2019-02-28T10:26:37.583Z,46.32
2019-02-28T10:27:37.579Z,46.22
2019-02-28T10:28:37.568Z,46.93
2019-02-28T10:29:38.433Z,46.83
2019-02-28T10:30:38.307Z,47.24
2019-02-28T10:31:38.427Z,46.72
2019-02-28T10:32:40.368Z,46.93
2019-02-28T10:33:40.319Z,46.83
2019-02-28T10:34:40.305Z,45.81
2019-02-28T10:35:37.714Z,46.62
2019-02-28T10:36:37.474Z,45.89
2019-02-28T10:37:37.517Z,45.99
2019-02-28T10:38:37.458Z,46.09
2019-02-28T10:39:43.161Z,46.11
2019-02-28T10:40:37.441Z,46.20
2019-02-28T10:41:37.420Z,46.40
2019-02-28T10:42:40.225Z,46.09
2019-02-28T10:43:37.399Z,46.40
2019-02-28T10:44:37.385Z,46.20
2019-02-28T10:45:40.892Z,46.09
2019-02-28T10:46:37.366Z,46.81
2019-02-28T10:47:37.367Z,46.30
2019-02-28T10:48:41.805Z,46.30
2019-02-28T10:49:37.329Z,45.99
2019-02-28T10:50:37.348Z,46.37
2019-02-28T10:51:37.311Z,45.24
2019-02-28T10:52:37.300Z,44.95
2019-02-28T10:53:39.320Z,44.93
2019-02-28T10:54:37.294Z,45.24
2019-02-28T10:56:36.248Z,45.14
2019-02-28T10:57:40.419Z,45.95
2019-02-28T10:58:37.226Z,46.66
2019-02-28T10:59:37.242Z,46.56
2019-02-28T11:00:37.214Z,46.05
2019-02-28T11:01:41.587Z,45.21
2019-02-28T11:02:37.217Z,45.21
2019-02-28T11:03:37.176Z,44.81
2019-02-28T11:04:42.880Z,44.10
2019-02-28T11:05:37.193Z,43.90
2019-02-28T11:06:37.175Z,44.63
2019-02-28T11:07:37.885Z,44.02
2019-02-28T11:08:37.147Z,44.53
2019-02-28T11:09:37.103Z,44.93
2019-02-28T11:10:37.093Z,45.36
2019-02-28T11:11:37.796Z,44.93
2019-02-28T11:12:37.092Z,45.34
2019-02-28T11:13:37.063Z,45.64
2019-02-28T11:14:38.850Z,45.34
2019-02-28T11:15:37.038Z,44.73
2019-02-28T11:16:37.030Z,44.32
2019-02-28T11:17:37.059Z,44.32
2019-02-28T11:18:37.017Z,43.91
2019-02-28T11:19:37.008Z,44.32
2019-02-28T11:20:37.007Z,44.73
2019-02-28T11:21:36.978Z,44.63
2019-02-28T11:22:39.905Z,44.73
2019-02-28T11:23:36.958Z,44.53
2019-02-28T11:24:36.939Z,44.93
2019-02-28T11:26:35.911Z,44.63
2019-02-28T11:27:36.910Z,44.73
2019-02-28T11:28:37.835Z,44.32
2019-02-28T11:29:36.882Z,44.12
2019-02-28T11:30:36.872Z,44.53
2019-02-28T11:31:36.858Z,43.81
2019-02-28T11:32:36.863Z,44.34
2019-02-28T11:33:39.513Z,44.02
2019-02-28T11:34:36.854Z,44.63
2019-02-28T11:35:36.824Z,43.81
2019-02-28T11:36:36.804Z,44.02
2019-02-28T11:37:36.800Z,44.42
2019-02-28T11:38:36.774Z,44.32
2019-02-28T11:39:36.769Z,43.81
2019-02-28T11:40:36.807Z,44.32
2019-02-28T11:41:36.746Z,44.02
2019-02-28T11:42:36.739Z,43.61
2019-02-28T11:43:38.403Z,44.02
2019-02-28T11:44:36.714Z,43.10
2019-02-28T11:45:36.707Z,42.90
2019-02-28T11:46:36.762Z,43.71
2019-02-28T11:47:36.709Z,43.30
2019-02-28T11:48:36.665Z,43.30
2019-02-28T11:49:36.651Z,43.30
2019-02-28T11:50:41.230Z,43.10
2019-02-28T11:51:36.643Z,43.91
2019-02-28T11:52:36.654Z,43.71
2019-02-28T11:53:40.399Z,43.61
2019-02-28T11:54:36.598Z,44.53
2019-02-28T11:55:39.281Z,43.91
2019-02-28T11:56:36.583Z,44.63
2019-02-28T11:57:37.787Z,44.32
2019-02-28T11:58:36.554Z,44.53
2019-02-28T11:59:36.543Z,44.63
2019-02-28T12:00:36.750Z,44.32
2019-02-28T12:01:36.525Z,44.02
2019-02-28T12:02:36.510Z,43.81
2019-02-28T12:03:36.665Z,43.81
2019-02-28T12:04:37.498Z,44.73
2019-02-28T12:05:36.477Z,44.02
2019-02-28T12:06:36.463Z,44.83
2019-02-28T12:07:36.458Z,43.81
2019-02-28T12:08:41.480Z,43.51
2019-02-28T12:09:38.361Z,43.81
2019-02-28T12:10:36.413Z,43.51
2019-02-28T12:11:37.149Z,43.61
2019-02-28T12:12:36.422Z,44.93
2019-02-28T12:13:36.398Z,44.63
2019-02-28T12:14:36.405Z,44.53
2019-02-28T12:15:38.197Z,44.42
2019-02-28T12:16:36.359Z,44.53
2019-02-28T12:17:36.352Z,44.42
2019-02-28T12:18:39.505Z,44.53
2019-02-28T12:19:36.320Z,43.71
2019-02-28T12:20:36.328Z,43.71
2019-02-28T12:21:38.091Z,44.32
2019-02-28T12:22:36.347Z,44.30
2019-02-28T12:23:36.270Z,44.60
2019-02-28T12:24:36.271Z,44.32
2019-02-28T12:25:36.253Z,44.20
2019-02-28T12:26:36.279Z,44.30
2019-02-28T12:27:36.247Z,44.60
2019-02-28T12:28:38.475Z,44.51
2019-02-28T12:29:36.210Z,44.51
2019-02-28T12:30:36.209Z,44.60
2019-02-28T12:31:36.586Z,44.81
2019-02-28T12:32:36.225Z,44.30
2019-02-28T12:33:36.168Z,43.79
2019-02-28T12:34:36.147Z,43.67
2019-02-28T12:35:40.338Z,43.69
2019-02-28T12:36:36.159Z,42.96
2019-02-28T12:38:35.133Z,43.14
2019-02-28T12:39:36.992Z,43.77
2019-02-28T12:40:36.806Z,44.18
2019-02-28T12:41:36.075Z,43.16
2019-02-28T12:42:36.071Z,43.37
2019-02-28T12:43:36.087Z,43.44
2019-02-28T12:44:36.047Z,43.24
2019-02-28T12:45:36.031Z,43.43
2019-02-28T12:46:36.065Z,43.55
2019-02-28T12:47:38.626Z,42.82
2019-02-28T12:48:36.031Z,42.94
2019-02-28T12:49:35.982Z,43.75
2019-02-28T12:50:36.778Z,42.94
2019-02-28T12:51:36.524Z,42.82
2019-02-28T12:52:35.960Z,43.24
2019-02-28T12:53:35.995Z,43.24
2019-02-28T12:54:35.928Z,43.04
2019-02-28T12:55:38.800Z,43.04
2019-02-28T12:56:35.961Z,43.14
2019-02-28T12:57:36.765Z,43.04
2019-02-28T12:58:39.096Z,43.44
2019-02-28T12:59:35.905Z,43.24
2019-02-28T13:00:35.874Z,43.55
2019-02-28T13:01:35.876Z,43.37
2019-02-28T13:02:35.901Z,43.44
2019-02-28T13:03:35.871Z,43.16
2019-02-28T13:04:38.795Z,43.98
2019-02-28T13:05:35.841Z,44.08
2019-02-28T13:06:36.268Z,44.08
2019-02-28T13:07:35.787Z,43.47
2019-02-28T13:08:38.616Z,43.98
2019-02-28T13:09:35.761Z,44.67
2019-02-28T13:10:35.744Z,44.46
2019-02-28T13:13:34.725Z,43.85
2019-02-28T13:14:36.880Z,43.35
2019-02-28T13:15:35.740Z,43.55